createdAt,value
2017-10-19T00:00:40.876Z,0
2017-10-19T00:01:42.295Z,0
2017-10-19T00:02:43.723Z,0
2017-10-19T00:03:45.133Z,0
2017-10-19T00:04:46.562Z,0
2017-10-19T00:05:47.982Z,0
2017-10-19T00:06:49.401Z,0
2017-10-19T00:07:50.824Z,0
2017-10-19T00:08:52.242Z,0
2017-10-19T00:09:53.658Z,0
2017-10-19T00:10:55.087Z,0
2017-10-19T00:11:56.517Z,0
2017-10-19T00:12:57.946Z,0
2017-10-19T00:13:59.366Z,0
2017-10-19T00:15:00.784Z,0
2017-10-19T00:16:02.212Z,0
2017-10-19T00:17:03.633Z,0
2017-10-19T00:18:05.064Z,0
2017-10-19T00:19:06.499Z,0
2017-10-19T00:20:07.920Z,0
2017-10-19T00:21:09.352Z,0
2017-10-19T00:22:10.771Z,0
2017-10-19T00:23:12.188Z,0
2017-10-19T00:24:13.616Z,0
2017-10-19T00:25:15.044Z,0
2017-10-19T00:26:16.463Z,0
2017-10-19T00:27:17.888Z,0
2017-10-19T00:28:19.312Z,0
2017-10-19T00:29:20.733Z,0
2017-10-19T00:30:22.156Z,0
2017-10-19T00:31:23.584Z,0
2017-10-19T00:32:25.000Z,0
2017-10-19T00:33:26.421Z,0
2017-10-19T00:34:27.839Z,0
2017-10-19T00:35:29.263Z,0
2017-10-19T00:36:30.681Z,0
2017-10-19T00:37:32.117Z,0
2017-10-19T00:38:33.552Z,0
2017-10-19T00:39:34.962Z,0
2017-10-19T00:40:36.385Z,0
2017-10-19T00:41:37.804Z,0
2017-10-19T00:42:39.225Z,0
2017-10-19T00:43:40.647Z,0
2017-10-19T00:44:42.060Z,0
2017-10-19T00:45:43.480Z,0
2017-10-19T00:46:44.919Z,0
2017-10-19T00:47:46.339Z,0
2017-10-19T00:48:47.764Z,0
2017-10-19T00:49:49.183Z,0
2017-10-19T00:50:50.602Z,0
2017-10-19T00:51:52.024Z,0
2017-10-19T00:52:53.450Z,0
2017-10-19T00:53:54.863Z,0
2017-10-19T00:54:56.288Z,0
2017-10-19T00:55:57.712Z,0
2017-10-19T00:56:59.136Z,0
2017-10-19T00:58:00.563Z,0
2017-10-19T00:59:01.989Z,0
2017-10-19T01:00:03.419Z,0
2017-10-19T01:01:04.839Z,0
2017-10-19T01:02:06.264Z,0
2017-10-19T01:03:07.690Z,0
2017-10-19T01:04:09.095Z,0
2017-10-19T01:05:10.515Z,0
2017-10-19T01:06:11.946Z,0
2017-10-19T01:07:13.359Z,0
2017-10-19T01:08:14.772Z,0
2017-10-19T01:09:16.195Z,0
2017-10-19T01:10:17.623Z,0
2017-10-19T01:11:19.043Z,0
2017-10-19T01:12:20.477Z,0
2017-10-19T01:13:21.909Z,0
2017-10-19T01:14:23.331Z,0
2017-10-19T01:15:24.755Z,0
2017-10-19T01:16:26.172Z,0
2017-10-19T01:17:27.631Z,0
2017-10-19T01:18:29.056Z,0
2017-10-19T01:19:30.472Z,0
2017-10-19T01:20:31.893Z,0
2017-10-19T01:21:33.334Z,0
2017-10-19T01:22:34.755Z,0
2017-10-19T01:23:36.217Z,0
2017-10-19T01:24:37.652Z,0
2017-10-19T01:25:39.163Z,0
2017-10-19T01:26:40.576Z,0
2017-10-19T01:27:41.993Z,0
2017-10-19T01:28:43.421Z,0
2017-10-19T01:29:44.847Z,0
2017-10-19T01:30:46.278Z,0
2017-10-19T01:31:47.696Z,0
2017-10-19T01:32:49.187Z,0
2017-10-19T01:33:50.609Z,0
2017-10-19T01:34:52.027Z,0
2017-10-19T01:35:53.562Z,0
2017-10-19T01:36:54.986Z,0
2017-10-19T01:37:56.418Z,0
2017-10-19T01:38:57.841Z,0
2017-10-19T01:39:59.257Z,0
2017-10-19T01:41:00.682Z,0
2017-10-19T01:42:02.111Z,0
2017-10-19T01:43:03.540Z,0
2017-10-19T01:44:04.954Z,0
2017-10-19T01:45:06.384Z,0
2017-10-19T01:46:07.808Z,0
2017-10-19T01:47:09.229Z,0
2017-10-19T01:48:10.650Z,0
2017-10-19T01:49:12.075Z,0
2017-10-19T01:50:13.507Z,0
2017-10-19T01:51:14.924Z,0
2017-10-19T01:52:16.341Z,0
2017-10-19T01:53:17.758Z,0
2017-10-19T01:54:19.184Z,0
2017-10-19T01:55:20.601Z,0
2017-10-19T01:56:22.019Z,0
2017-10-19T01:57:23.433Z,0
2017-10-19T01:58:24.864Z,0
2017-10-19T01:59:26.272Z,0
2017-10-19T02:00:27.693Z,0
2017-10-19T02:01:29.120Z,0
2017-10-19T02:02:30.525Z,0
2017-10-19T02:03:31.941Z,0
2017-10-19T02:04:33.368Z,0
2017-10-19T02:05:34.798Z,0
2017-10-19T02:06:36.212Z,0
2017-10-19T02:07:37.634Z,0
2017-10-19T02:08:39.054Z,0
2017-10-19T02:09:40.479Z,0
2017-10-19T02:10:41.914Z,0
2017-10-19T02:11:43.329Z,0
2017-10-19T02:12:44.749Z,0
2017-10-19T02:13:46.169Z,0
2017-10-19T02:14:47.592Z,0
2017-10-19T02:15:49.019Z,0
2017-10-19T02:16:50.429Z,0
2017-10-19T02:17:51.851Z,0
2017-10-19T02:18:53.272Z,0
2017-10-19T02:19:54.696Z,0
2017-10-19T02:20:56.123Z,0
2017-10-19T02:21:57.544Z,0
2017-10-19T02:22:58.973Z,0
2017-10-19T02:24:00.389Z,0
2017-10-19T02:25:01.801Z,0
2017-10-19T02:26:03.227Z,0
2017-10-19T02:27:04.646Z,0
2017-10-19T02:28:06.053Z,0
2017-10-19T02:29:07.489Z,0
2017-10-19T02:30:08.907Z,0
2017-10-19T02:31:10.324Z,0
2017-10-19T02:32:11.742Z,0
2017-10-19T02:33:13.154Z,0
2017-10-19T02:34:14.585Z,0
2017-10-19T02:35:15.994Z,0
2017-10-19T02:36:17.423Z,0
2017-10-19T02:37:18.835Z,0
2017-10-19T02:38:20.242Z,0
2017-10-19T02:39:24.088Z,0
2017-10-19T02:40:28.081Z,0
2017-10-19T02:41:29.513Z,0
2017-10-19T02:42:30.932Z,0
2017-10-19T02:43:32.352Z,0
2017-10-19T02:44:33.773Z,0
2017-10-19T02:45:35.191Z,0
2017-10-19T02:46:36.606Z,0
2017-10-19T02:47:38.026Z,0
2017-10-19T02:48:39.450Z,0
2017-10-19T02:49:40.857Z,0
2017-10-19T02:50:42.276Z,0
2017-10-19T02:51:43.699Z,0
2017-10-19T02:52:45.119Z,0
2017-10-19T02:53:46.538Z,0
2017-10-19T02:54:48.010Z,0
2017-10-19T02:55:49.428Z,0
2017-10-19T02:56:50.847Z,0
2017-10-19T02:57:52.266Z,0
2017-10-19T02:58:53.684Z,0
2017-10-19T02:59:55.102Z,4
2017-10-19T03:00:56.526Z,4
2017-10-19T03:01:57.956Z,4
2017-10-19T03:02:59.365Z,4
2017-10-19T03:04:00.786Z,16
2017-10-19T03:05:02.206Z,16
2017-10-19T03:06:03.625Z,16
2017-10-19T03:07:05.048Z,12
2017-10-19T03:08:06.466Z,12
2017-10-19T03:09:07.884Z,12
2017-10-19T03:10:09.312Z,12
2017-10-19T03:11:10.731Z,12
2017-10-19T03:12:12.152Z,12
2017-10-19T03:13:13.579Z,12
2017-10-19T03:14:14.998Z,12
2017-10-19T03:15:16.416Z,12
2017-10-19T03:16:17.838Z,12
2017-10-19T03:17:19.252Z,12
2017-10-19T03:18:20.667Z,16
2017-10-19T03:19:22.087Z,16
2017-10-19T03:20:23.515Z,16
2017-10-19T03:21:24.936Z,16
2017-10-19T03:22:26.358Z,12
2017-10-19T03:23:27.772Z,16
2017-10-19T03:24:29.195Z,16
2017-10-19T03:25:30.608Z,12
2017-10-19T03:26:32.036Z,12
2017-10-19T03:27:33.456Z,16
2017-10-19T03:28:34.877Z,12
2017-10-19T03:29:36.295Z,12
2017-10-19T03:30:37.716Z,12
2017-10-19T03:31:39.145Z,12
2017-10-19T03:32:40.570Z,12
2017-10-19T03:33:42.008Z,12
2017-10-19T03:34:43.429Z,12
2017-10-19T03:35:44.858Z,12
2017-10-19T03:36:46.277Z,12
2017-10-19T03:37:47.707Z,12
2017-10-19T03:38:49.130Z,12
2017-10-19T03:39:50.552Z,12
2017-10-19T03:40:51.981Z,12
2017-10-19T03:41:53.409Z,12
2017-10-19T03:42:54.834Z,12
2017-10-19T03:43:56.254Z,12
2017-10-19T03:44:57.630Z,12
2017-10-19T03:45:59.044Z,12
2017-10-19T03:47:00.469Z,12
2017-10-19T03:48:01.899Z,12
2017-10-19T03:49:03.326Z,12
2017-10-19T03:50:04.756Z,12
2017-10-19T03:51:06.174Z,12
2017-10-19T03:52:07.593Z,12
2017-10-19T03:53:09.022Z,12
2017-10-19T03:54:10.446Z,12
2017-10-19T03:55:12.454Z,12
2017-10-19T03:56:15.647Z,12
2017-10-19T03:57:18.158Z,12
2017-10-19T03:58:19.448Z,12
2017-10-19T03:59:20.861Z,12
2017-10-19T04:00:22.284Z,12
2017-10-19T04:01:23.700Z,12
2017-10-19T04:02:25.116Z,12
2017-10-19T04:03:26.539Z,12
2017-10-19T04:04:27.958Z,12
2017-10-19T04:05:29.381Z,12
2017-10-19T04:06:31.713Z,12
2017-10-19T04:07:33.135Z,12
2017-10-19T04:08:34.561Z,12
2017-10-19T04:09:35.965Z,12
2017-10-19T04:10:37.386Z,12
2017-10-19T04:11:38.814Z,12
2017-10-19T04:12:40.240Z,12
2017-10-19T04:13:41.656Z,12
2017-10-19T04:14:43.079Z,12
2017-10-19T04:15:44.493Z,0
2017-10-19T04:16:45.924Z,0
2017-10-19T04:17:47.343Z,0
2017-10-19T04:18:48.789Z,0
2017-10-19T04:19:50.222Z,0
2017-10-19T04:20:51.869Z,0
2017-10-19T04:21:53.286Z,0
2017-10-19T04:22:54.707Z,0
2017-10-19T04:23:56.144Z,0
2017-10-19T04:24:57.566Z,0
2017-10-19T04:25:58.979Z,0
2017-10-19T04:27:00.401Z,0
2017-10-19T04:28:01.816Z,0
2017-10-19T04:29:03.229Z,0
2017-10-19T04:30:04.642Z,0
2017-10-19T04:31:06.065Z,0
2017-10-19T04:32:07.481Z,0
2017-10-19T04:33:08.905Z,0
2017-10-19T04:34:10.322Z,0
2017-10-19T04:35:11.746Z,0
2017-10-19T04:36:13.161Z,0
2017-10-19T04:37:14.587Z,0
2017-10-19T04:38:16.007Z,0
2017-10-19T04:39:17.426Z,0
2017-10-19T04:40:18.847Z,0
2017-10-19T04:41:20.261Z,0
2017-10-19T04:42:21.682Z,0
2017-10-19T04:43:23.105Z,0
2017-10-19T04:44:24.522Z,0
2017-10-19T04:45:25.941Z,0
2017-10-19T04:46:27.363Z,0
2017-10-19T04:47:28.788Z,0
2017-10-19T04:48:30.205Z,0
2017-10-19T04:49:31.624Z,0
2017-10-19T04:50:33.048Z,0
2017-10-19T04:51:34.464Z,0
2017-10-19T04:52:35.884Z,0
2017-10-19T04:53:37.304Z,0
2017-10-19T04:54:38.718Z,0
2017-10-19T04:55:40.134Z,0
2017-10-19T04:56:41.548Z,0
2017-10-19T04:57:42.965Z,0
2017-10-19T04:58:44.390Z,0
2017-10-19T04:59:45.814Z,0
2017-10-19T05:00:47.221Z,0
2017-10-19T05:01:48.662Z,0
2017-10-19T05:02:50.060Z,0
2017-10-19T05:03:51.485Z,0
2017-10-19T05:04:52.901Z,0
2017-10-19T05:05:54.325Z,0
2017-10-19T05:06:55.742Z,0
2017-10-19T05:07:57.162Z,0
2017-10-19T05:08:58.595Z,0
2017-10-19T05:10:00.019Z,0
2017-10-19T05:11:01.459Z,0
2017-10-19T05:12:02.864Z,0
2017-10-19T05:13:04.287Z,0
2017-10-19T05:14:05.706Z,0
2017-10-19T05:15:07.140Z,0
2017-10-19T05:16:08.545Z,0
2017-10-19T05:17:09.969Z,0
2017-10-19T05:18:11.388Z,0
2017-10-19T05:19:12.815Z,0
2017-10-19T05:20:14.235Z,0
2017-10-19T05:21:15.659Z,0
2017-10-19T05:22:17.075Z,0
2017-10-19T05:23:18.503Z,0
2017-10-19T05:24:19.924Z,0
2017-10-19T05:25:21.343Z,0
2017-10-19T05:26:22.777Z,0
2017-10-19T05:27:24.193Z,0
2017-10-19T05:28:25.613Z,0
2017-10-19T05:29:27.031Z,0
2017-10-19T05:30:28.454Z,0
2017-10-19T05:31:29.873Z,0
2017-10-19T05:32:31.299Z,0
2017-10-19T05:33:32.725Z,0
2017-10-19T05:34:34.155Z,0
2017-10-19T05:35:35.565Z,0
2017-10-19T05:36:37.809Z,4
2017-10-19T05:37:39.234Z,4
2017-10-19T05:38:40.652Z,0
2017-10-19T05:39:42.076Z,4
2017-10-19T05:40:43.493Z,4
2017-10-19T05:41:44.916Z,4
2017-10-19T05:42:51.259Z,4
2017-10-19T05:43:57.659Z,4
2017-10-19T05:45:06.666Z,4
2017-10-19T05:46:08.857Z,8
2017-10-19T05:47:10.277Z,8
2017-10-19T05:48:15.199Z,8
2017-10-19T05:49:19.128Z,8
2017-10-19T05:50:29.200Z,12
2017-10-19T05:51:32.252Z,12
2017-10-19T05:52:33.681Z,16
2017-10-19T05:53:39.116Z,16
2017-10-19T05:54:39.628Z,20
2017-10-19T05:55:42.878Z,24
2017-10-19T05:56:44.832Z,24
2017-10-19T05:57:50.694Z,28
2017-10-19T05:58:53.719Z,32
2017-10-19T05:59:55.149Z,32
2017-10-19T06:00:58.252Z,40
2017-10-19T06:02:03.191Z,44
2017-10-19T06:03:12.110Z,48
2017-10-19T06:04:21.325Z,52
2017-10-19T06:05:23.616Z,56
2017-10-19T06:06:24.104Z,56
2017-10-19T06:07:32.113Z,60
2017-10-19T06:08:39.611Z,68
2017-10-19T06:09:46.689Z,72
2017-10-19T06:10:55.181Z,80
2017-10-19T06:12:05.118Z,80
2017-10-19T06:13:11.223Z,88
2017-10-19T06:14:12.722Z,96
2017-10-19T06:15:18.118Z,100
2017-10-19T06:16:29.730Z,108
2017-10-19T06:17:42.623Z,116
2017-10-19T06:18:48.922Z,120
2017-10-19T06:19:57.116Z,132
2017-10-19T06:21:08.231Z,140
2017-10-19T06:22:15.044Z,148
2017-10-19T06:23:25.120Z,156
2017-10-19T06:24:27.701Z,160
2017-10-19T06:25:38.614Z,172
2017-10-19T06:26:49.619Z,176
2017-10-19T06:27:54.696Z,184
2017-10-19T06:29:05.256Z,192
2017-10-19T06:30:11.860Z,200
2017-10-19T06:31:24.635Z,204
2017-10-19T06:32:34.120Z,208
2017-10-19T06:33:38.236Z,216
2017-10-19T06:34:44.695Z,224
2017-10-19T06:35:52.210Z,232
2017-10-19T06:36:55.886Z,236
2017-10-19T06:37:57.301Z,248
2017-10-19T06:38:58.729Z,256
2017-10-19T06:40:00.155Z,268
2017-10-19T06:41:01.585Z,276
2017-10-19T06:42:03.008Z,284
2017-10-19T06:43:04.429Z,292
2017-10-19T06:44:05.850Z,300
2017-10-19T06:45:07.265Z,304
2017-10-19T06:46:08.687Z,312
2017-10-19T06:47:10.112Z,320
2017-10-19T06:48:11.529Z,328
2017-10-19T06:49:12.946Z,332
2017-10-19T06:50:14.368Z,340
2017-10-19T06:51:15.790Z,344
2017-10-19T06:52:17.221Z,352
2017-10-19T06:53:18.643Z,356
2017-10-19T06:54:20.060Z,360
2017-10-19T06:55:21.495Z,368
2017-10-19T06:56:22.915Z,376
2017-10-19T06:57:24.341Z,380
2017-10-19T06:58:25.773Z,388
2017-10-19T06:59:27.205Z,392
2017-10-19T07:00:28.632Z,400
2017-10-19T07:01:30.048Z,408
2017-10-19T07:02:31.478Z,412
2017-10-19T07:03:32.895Z,416
2017-10-19T07:04:34.318Z,424
2017-10-19T07:05:35.731Z,432
2017-10-19T07:06:37.147Z,436
2017-10-19T07:07:38.571Z,440
2017-10-19T07:08:39.994Z,448
2017-10-19T07:09:41.410Z,456
2017-10-19T07:10:42.844Z,456
2017-10-19T07:11:44.256Z,464
2017-10-19T07:12:45.684Z,472
2017-10-19T07:13:47.113Z,480
2017-10-19T07:14:48.529Z,488
2017-10-19T07:15:49.951Z,492
2017-10-19T07:16:51.379Z,504
2017-10-19T07:17:52.800Z,508
2017-10-19T07:18:54.223Z,512
2017-10-19T07:19:55.649Z,520
2017-10-19T07:20:57.074Z,524
2017-10-19T07:21:58.489Z,532
2017-10-19T07:22:59.919Z,540
2017-10-19T07:24:01.346Z,548
2017-10-19T07:25:02.769Z,552
2017-10-19T07:26:04.189Z,556
2017-10-19T07:27:05.612Z,560
2017-10-19T07:28:07.039Z,564
2017-10-19T07:29:08.459Z,572
2017-10-19T07:30:09.877Z,576
2017-10-19T07:31:11.300Z,584
2017-10-19T07:32:12.717Z,584
2017-10-19T07:33:14.142Z,588
2017-10-19T07:34:15.569Z,592
2017-10-19T07:35:17.051Z,596
2017-10-19T07:36:18.476Z,600
2017-10-19T07:37:19.894Z,604
2017-10-19T07:38:21.308Z,608
2017-10-19T07:39:22.733Z,608
2017-10-19T07:40:24.113Z,612
2017-10-19T07:41:25.538Z,616
2017-10-19T07:42:26.965Z,620
2017-10-19T07:43:28.391Z,628
2017-10-19T07:44:29.813Z,632
2017-10-19T07:45:31.238Z,632
2017-10-19T07:46:32.676Z,636
2017-10-19T07:47:34.104Z,640
2017-10-19T07:48:35.524Z,644
2017-10-19T07:49:36.956Z,652
2017-10-19T07:50:38.373Z,656
2017-10-19T07:51:39.800Z,660
2017-10-19T07:52:41.253Z,664
2017-10-19T07:53:42.636Z,672
2017-10-19T07:54:44.058Z,676
2017-10-19T07:55:45.488Z,676
2017-10-19T07:56:46.909Z,680
2017-10-19T07:57:48.329Z,680
2017-10-19T07:58:49.760Z,684
2017-10-19T07:59:51.178Z,688
2017-10-19T08:00:52.601Z,688
2017-10-19T08:01:54.027Z,692
2017-10-19T08:02:55.466Z,692
2017-10-19T08:03:56.892Z,696
2017-10-19T08:04:58.311Z,696
2017-10-19T08:05:59.726Z,700
2017-10-19T08:07:01.145Z,712
2017-10-19T08:08:02.572Z,712
2017-10-19T08:09:03.989Z,720
2017-10-19T08:10:05.409Z,728
2017-10-19T08:11:06.831Z,732
2017-10-19T08:12:08.258Z,736
2017-10-19T08:13:09.682Z,740
2017-10-19T08:14:11.114Z,744
2017-10-19T08:15:12.597Z,752
2017-10-19T08:16:14.021Z,756
2017-10-19T08:17:15.456Z,760
2017-10-19T08:18:16.874Z,768
2017-10-19T08:19:18.294Z,772
2017-10-19T08:20:19.717Z,784
2017-10-19T08:21:21.152Z,792
2017-10-19T08:22:22.588Z,796
2017-10-19T08:23:24.009Z,804
2017-10-19T08:24:25.427Z,812
2017-10-19T08:25:26.854Z,816
2017-10-19T08:26:28.281Z,820
2017-10-19T08:27:29.713Z,824
2017-10-19T08:28:31.137Z,832
2017-10-19T08:29:32.558Z,840
2017-10-19T08:30:33.990Z,848
2017-10-19T08:31:35.416Z,856
2017-10-19T08:32:36.839Z,872
2017-10-19T08:33:38.272Z,888
2017-10-19T08:34:39.709Z,908
2017-10-19T08:35:41.118Z,920
2017-10-19T08:36:42.538Z,932
2017-10-19T08:37:43.969Z,956
2017-10-19T08:38:45.401Z,976
2017-10-19T08:39:46.824Z,1000
2017-10-19T08:40:48.247Z,1016
2017-10-19T08:41:49.677Z,1040
2017-10-19T08:42:51.099Z,1056
2017-10-19T08:43:52.520Z,1076
2017-10-19T08:44:53.943Z,1092
2017-10-19T08:45:55.369Z,1108
2017-10-19T08:46:56.794Z,1116
2017-10-19T08:47:58.216Z,1128
2017-10-19T08:48:59.646Z,1140
2017-10-19T08:50:01.085Z,1148
2017-10-19T08:51:02.509Z,1164
2017-10-19T08:52:03.930Z,1172
2017-10-19T08:53:05.365Z,1188
2017-10-19T08:54:06.788Z,1188
2017-10-19T08:55:08.230Z,1200
2017-10-19T08:56:09.647Z,1208
2017-10-19T08:57:11.078Z,1212
2017-10-19T08:58:12.500Z,1208
2017-10-19T08:59:13.923Z,1208
2017-10-19T09:00:15.353Z,1216
2017-10-19T09:01:16.775Z,1216
2017-10-19T09:02:18.206Z,1208
2017-10-19T09:03:19.628Z,1216
2017-10-19T09:04:21.053Z,1204
2017-10-19T09:05:22.523Z,1216
2017-10-19T09:06:23.951Z,1208
2017-10-19T09:07:25.407Z,1216
2017-10-19T09:08:26.837Z,1216
2017-10-19T09:09:28.270Z,1216
2017-10-19T09:10:29.740Z,1204
2017-10-19T09:11:31.159Z,1196
2017-10-19T09:12:32.599Z,1192
2017-10-19T09:13:34.025Z,1188
2017-10-19T09:14:35.464Z,1208
2017-10-19T09:15:36.901Z,1216
2017-10-19T09:16:38.339Z,1216
2017-10-19T09:17:39.773Z,1220
2017-10-19T09:18:41.197Z,324
2017-10-19T09:19:42.636Z,1228
2017-10-19T09:20:44.059Z,1236
2017-10-19T09:21:45.484Z,1240
2017-10-19T09:22:46.960Z,1248
2017-10-19T09:23:48.390Z,1260
2017-10-19T09:24:49.816Z,1256
2017-10-19T09:25:51.747Z,1260
2017-10-19T09:26:53.176Z,1284
2017-10-19T09:27:54.600Z,1284
2017-10-19T09:28:56.032Z,1304
2017-10-19T09:29:57.462Z,1324
2017-10-19T09:30:58.899Z,1328
2017-10-19T09:32:00.329Z,1348
2017-10-19T09:33:01.764Z,1368
2017-10-19T09:34:03.193Z,1392
2017-10-19T09:35:04.612Z,1416
2017-10-19T09:36:06.038Z,1436
2017-10-19T09:37:07.463Z,1464
2017-10-19T09:38:08.908Z,1468
2017-10-19T09:39:10.351Z,1488
2017-10-19T09:40:11.779Z,1488
2017-10-19T09:41:13.221Z,1492
2017-10-19T09:42:14.665Z,1484
2017-10-19T09:43:16.130Z,1492
2017-10-19T09:44:17.561Z,1496
2017-10-19T09:45:18.989Z,1492
2017-10-19T09:46:20.420Z,1480
2017-10-19T09:47:21.852Z,1476
2017-10-19T09:48:23.282Z,1512
2017-10-19T09:49:24.716Z,1528
2017-10-19T09:50:26.149Z,1536
2017-10-19T09:51:27.574Z,1552
2017-10-19T09:52:29.002Z,1552
2017-10-19T09:53:30.438Z,1184
2017-10-19T09:54:31.861Z,1584
2017-10-19T09:55:33.288Z,1604
2017-10-19T09:56:34.713Z,1624
2017-10-19T09:57:36.144Z,1624
2017-10-19T09:58:37.570Z,1632
2017-10-19T09:59:38.997Z,1632
2017-10-19T10:00:40.430Z,1660
2017-10-19T10:01:41.864Z,1688
2017-10-19T10:02:43.290Z,1708
2017-10-19T10:03:44.731Z,1728
2017-10-19T10:04:46.158Z,1740
2017-10-19T10:05:47.582Z,1748
2017-10-19T10:06:49.019Z,1772
2017-10-19T10:07:50.447Z,1784
2017-10-19T10:08:51.872Z,1780
2017-10-19T10:09:53.300Z,1800
2017-10-19T10:10:54.729Z,1856
2017-10-19T10:11:56.156Z,1904
2017-10-19T10:12:57.585Z,1936
2017-10-19T10:13:59.011Z,1964
2017-10-19T10:15:00.441Z,1968
2017-10-19T10:16:01.867Z,1996
2017-10-19T10:17:03.305Z,2016
2017-10-19T10:18:04.742Z,2040
2017-10-19T10:19:06.178Z,2068
2017-10-19T10:20:07.599Z,2092
2017-10-19T10:21:09.028Z,2100
2017-10-19T10:22:10.454Z,2116
2017-10-19T10:23:11.884Z,2140
2017-10-19T10:24:13.307Z,2164
2017-10-19T10:25:14.743Z,2124
2017-10-19T10:26:16.652Z,2184
2017-10-19T10:27:18.086Z,2176
2017-10-19T10:28:19.510Z,2208
2017-10-19T10:29:20.947Z,2216
2017-10-19T10:30:22.380Z,2256
2017-10-19T10:31:23.803Z,2284
2017-10-19T10:32:25.232Z,2340
2017-10-19T10:33:26.656Z,2096
2017-10-19T10:34:28.081Z,1332
2017-10-19T10:35:29.510Z,2456
2017-10-19T10:36:30.942Z,2560
2017-10-19T10:37:32.366Z,2592
2017-10-19T10:38:33.793Z,2664
2017-10-19T10:39:35.219Z,2692
2017-10-19T10:40:36.649Z,2792
2017-10-19T10:41:38.081Z,2840
2017-10-19T10:42:40.262Z,2928
2017-10-19T10:43:41.687Z,2940
2017-10-19T10:44:43.118Z,3008
2017-10-19T10:45:44.553Z,3064
2017-10-19T10:46:45.982Z,3124
2017-10-19T10:47:47.418Z,3200
2017-10-19T10:48:48.851Z,3280
2017-10-19T10:49:50.299Z,3380
2017-10-19T10:50:51.752Z,3412
2017-10-19T10:51:53.187Z,3564
2017-10-19T10:52:54.620Z,3628
2017-10-19T10:53:56.051Z,3700
2017-10-19T10:54:57.492Z,3752
2017-10-19T10:55:58.923Z,3820
2017-10-19T10:57:00.359Z,3920
2017-10-19T10:58:01.791Z,4032
2017-10-19T10:59:03.222Z,4064
2017-10-19T11:00:04.648Z,4048
2017-10-19T11:01:06.077Z,4084
2017-10-19T11:02:07.603Z,4104
2017-10-19T11:03:09.030Z,4144
2017-10-19T11:04:10.469Z,4176
2017-10-19T11:05:11.900Z,4212
2017-10-19T11:06:13.330Z,4312
2017-10-19T11:07:14.758Z,4320
2017-10-19T11:08:16.191Z,4352
2017-10-19T11:09:17.627Z,4348
2017-10-19T11:10:19.061Z,4388
2017-10-19T11:11:20.487Z,4424
2017-10-19T11:12:21.925Z,4516
2017-10-19T11:13:23.348Z,4536
2017-10-19T11:14:24.781Z,4440
2017-10-19T11:15:26.207Z,4584
2017-10-19T11:16:27.630Z,4676
2017-10-19T11:17:29.061Z,4728
2017-10-19T11:18:30.478Z,4788
2017-10-19T11:19:31.912Z,4880
2017-10-19T11:20:33.340Z,4908
2017-10-19T11:21:34.785Z,4976
2017-10-19T11:22:36.208Z,5008
2017-10-19T11:23:37.639Z,5048
2017-10-19T11:24:39.065Z,5092
2017-10-19T11:25:40.491Z,5112
2017-10-19T11:26:42.732Z,5188
2017-10-19T11:27:43.319Z,5264
2017-10-19T11:28:44.749Z,5304
2017-10-19T11:29:46.181Z,5352
2017-10-19T11:30:47.608Z,5480
2017-10-19T11:31:49.038Z,5568
2017-10-19T11:32:50.471Z,5724
2017-10-19T11:33:51.902Z,5872
2017-10-19T11:34:53.337Z,5944
2017-10-19T11:35:54.772Z,5956
2017-10-19T11:36:56.218Z,5960
2017-10-19T11:37:57.640Z,5932
2017-10-19T11:38:59.065Z,5984
2017-10-19T11:40:00.489Z,6152
2017-10-19T11:41:01.946Z,6524
2017-10-19T11:42:03.382Z,6904
2017-10-19T11:43:04.813Z,7856
2017-10-19T11:44:06.252Z,11380
2017-10-19T11:45:07.688Z,8508
2017-10-19T11:46:09.109Z,7024
2017-10-19T11:47:10.535Z,7240
2017-10-19T11:48:11.972Z,7692
2017-10-19T11:49:13.415Z,8112
2017-10-19T11:50:14.855Z,8916
2017-10-19T11:51:16.287Z,11872
2017-10-19T11:52:17.715Z,26208
2017-10-19T11:53:19.144Z,39968
2017-10-19T11:54:20.587Z,47104
2017-10-19T11:55:22.018Z,50592
2017-10-19T11:56:23.463Z,52704
2017-10-19T11:57:24.894Z,55968
2017-10-19T11:58:26.331Z,55680
2017-10-19T11:59:27.779Z,56480
2017-10-19T12:00:29.209Z,58560
2017-10-19T12:01:30.704Z,59936
2017-10-19T12:02:32.132Z,61248
2017-10-19T12:03:33.561Z,55520
2017-10-19T12:04:34.998Z,49184
2017-10-19T12:05:36.438Z,50656
2017-10-19T12:06:37.881Z,50720
2017-10-19T12:07:39.313Z,55648
2017-10-19T12:08:40.751Z,57696
2017-10-19T12:09:42.179Z,58944
2017-10-19T12:10:43.620Z,56704
2017-10-19T12:11:45.062Z,58464
2017-10-19T12:12:46.497Z,57568
2017-10-19T12:13:47.978Z,57472
2017-10-19T12:14:49.416Z,58848
2017-10-19T12:15:50.851Z,61088
2017-10-19T12:16:52.387Z,60608
2017-10-19T12:17:53.827Z,60032
2017-10-19T12:18:55.270Z,59936
2017-10-19T12:19:56.718Z,60288
2017-10-19T12:20:58.165Z,60000
2017-10-19T12:21:59.602Z,59744
2017-10-19T12:23:01.036Z,59456
2017-10-19T12:24:02.479Z,59424
2017-10-19T12:25:03.916Z,57984
2017-10-19T12:26:05.433Z,54752
2017-10-19T12:27:06.877Z,55712
2017-10-19T12:28:08.326Z,54560
2017-10-19T12:29:09.753Z,52736
2017-10-19T12:30:11.195Z,51904
2017-10-19T12:31:12.641Z,52352
2017-10-19T12:32:14.085Z,53792
2017-10-19T12:33:15.540Z,54752
2017-10-19T12:34:16.992Z,52512
2017-10-19T12:35:18.440Z,53568
2017-10-19T12:36:19.888Z,53920
2017-10-19T12:37:21.309Z,53728
2017-10-19T12:38:22.820Z,49344
2017-10-19T12:39:24.264Z,44384
2017-10-19T12:40:26.440Z,50496
2017-10-19T12:41:28.575Z,51936
2017-10-19T12:42:29.970Z,50688
2017-10-19T12:43:31.402Z,48224
2017-10-19T12:44:32.840Z,52384
2017-10-19T12:45:34.292Z,54016
2017-10-19T12:46:35.770Z,54496
2017-10-19T12:47:37.217Z,54752
2017-10-19T12:48:38.672Z,57184
2017-10-19T12:49:40.110Z,60576
2017-10-19T12:50:42.053Z,61792
2017-10-19T12:51:43.642Z,62816
2017-10-19T12:52:46.402Z,63264
2017-10-19T12:53:48.023Z,64224
2017-10-19T12:54:49.661Z,63040
2017-10-19T12:55:51.487Z,65600
2017-10-19T12:56:53.042Z,68800
2017-10-19T12:57:54.549Z,67232
2017-10-19T12:58:56.073Z,67520
2017-10-19T12:59:57.640Z,63264
2017-10-19T13:00:59.170Z,64096
2017-10-19T13:02:00.617Z,64544
2017-10-19T13:03:02.069Z,67904
2017-10-19T13:04:03.510Z,68160
2017-10-19T13:05:04.964Z,69376
2017-10-19T13:06:06.392Z,72992
2017-10-19T13:07:07.824Z,72160
2017-10-19T13:08:09.264Z,67296
2017-10-19T13:09:10.701Z,58464
2017-10-19T13:10:12.142Z,57440
2017-10-19T13:11:13.588Z,54688
2017-10-19T13:12:15.034Z,60160
2017-10-19T13:13:16.464Z,63520
2017-10-19T13:14:17.915Z,64128
2017-10-19T13:15:19.356Z,57376
2017-10-19T13:16:20.801Z,58688
2017-10-19T13:17:22.247Z,67392
2017-10-19T13:18:23.684Z,73888
2017-10-19T13:19:25.124Z,76000
2017-10-19T13:20:26.557Z,75776
2017-10-19T13:21:27.998Z,71904
2017-10-19T13:22:29.457Z,66944
2017-10-19T13:23:30.907Z,55232
2017-10-19T13:24:32.363Z,59712
2017-10-19T13:25:33.801Z,71104
2017-10-19T13:26:35.243Z,78752
2017-10-19T13:27:36.688Z,76064
2017-10-19T13:28:38.135Z,72736
2017-10-19T13:29:39.573Z,71168
2017-10-19T13:30:41.004Z,65024
2017-10-19T13:31:42.441Z,59968
2017-10-19T13:32:43.887Z,53568
2017-10-19T13:33:45.329Z,53984
2017-10-19T13:34:46.768Z,50112
2017-10-19T13:35:48.217Z,52352
2017-10-19T13:36:49.673Z,51264
2017-10-19T13:37:51.142Z,45632
2017-10-19T13:38:52.564Z,52000
2017-10-19T13:39:54.009Z,60672
2017-10-19T13:40:55.442Z,64992
2017-10-19T13:41:56.871Z,62816
2017-10-19T13:42:58.317Z,56544
2017-10-19T13:43:59.761Z,43712
2017-10-19T13:45:01.206Z,31552
2017-10-19T13:46:02.644Z,26240
2017-10-19T13:47:04.080Z,22080
2017-10-19T13:48:05.539Z,16984
2017-10-19T13:49:06.968Z,21280
2017-10-19T13:50:08.444Z,20352
2017-10-19T13:51:09.863Z,19360
2017-10-19T13:52:11.301Z,20416
2017-10-19T13:53:12.749Z,19296
2017-10-19T13:54:14.195Z,18112
2017-10-19T13:55:15.635Z,14456
2017-10-19T13:56:17.062Z,11640
2017-10-19T13:57:18.501Z,12728
2017-10-19T13:58:19.951Z,10380
2017-10-19T13:59:21.389Z,8636
2017-10-19T14:00:22.829Z,6596
2017-10-19T14:01:24.271Z,6280
2017-10-19T14:02:25.700Z,5164
2017-10-19T14:03:27.345Z,5392
2017-10-19T14:04:28.839Z,5080
2017-10-19T14:05:30.261Z,4532
2017-10-19T14:06:31.701Z,4484
2017-10-19T14:07:33.219Z,4772
2017-10-19T14:08:34.658Z,4636
2017-10-19T14:09:36.093Z,4108
2017-10-19T14:10:37.529Z,3968
2017-10-19T14:11:38.967Z,3864
2017-10-19T14:12:40.398Z,3844
2017-10-19T14:13:41.830Z,3796
2017-10-19T14:14:43.266Z,3784
2017-10-19T14:15:44.702Z,3784
2017-10-19T14:16:46.139Z,3716